Harmony, Florida
Current Conditions -  °F | °C
As of 6:53 AM on Sunday 21 Dec 2014 (Local Time) from KMLB Reporting Station
Overcast Overcast  
Wind Chill: 63°   Ceiling: 10000
Heat Index: 63°   Visibility: 10mi
Dew Point: 61°   Wind: 0mph
Humidity: 93%   Direction: NA
Pressure: 30.08"   Gusts: NA
Location:  28.1263°N, 80.9811°W
Report Text: KMLB 211153Z 00000KT 10SM OVC100 17/16 A3008 RMK AO2 SLP186 T01720161 10194 20156 53007
Loading
Personal Weather Stations






























Interactive Weather Map New forecast layout! Learn more

10-Day Weather Forecast

Advertisements
Track Severe Weather on mobile